sensor_id;sensor_type;location;lat;lon;timestamp;P1;durP1;ratioP1;P2;durP2;ratioP2
76290;SDS011;65100;46.884;17.410;2023-03-25T00:01:13;11.32;;;6.15;;
76290;SDS011;65100;46.884;17.410;2023-03-25T00:03:41;11.43;;;6.18;;
76290;SDS011;65100;46.884;17.410;2023-03-25T00:06:07;10.77;;;5.80;;
76290;SDS011;65100;46.884;17.410;2023-03-25T00:08:34;10.40;;;5.90;;
76290;SDS011;65100;46.884;17.410;2023-03-25T00:11:01;15.23;;;6.05;;
76290;SDS011;65100;46.884;17.410;2023-03-25T00:13:28;9.80;;;6.10;;
76290;SDS011;65100;46.884;17.410;2023-03-25T00:15:56;11.63;;;5.82;;
76290;SDS011;65100;46.884;17.410;2023-03-25T00:18:23;11.38;;;5.80;;
76290;SDS011;65100;46.884;17.410;2023-03-25T00:20:50;11.77;;;5.40;;
76290;SDS011;65100;46.884;17.410;2023-03-25T00:23:20;11.00;;;5.60;;
76290;SDS011;65100;46.884;17.410;2023-03-25T00:25:46;11.02;;;5.80;;
76290;SDS011;65100;46.884;17.410;2023-03-25T00:28:13;9.93;;;5.70;;
76290;SDS011;65100;46.884;17.410;2023-03-25T00:30:40;10.68;;;5.70;;
76290;SDS011;65100;46.884;17.410;2023-03-25T00:33:07;11.33;;;5.60;;
76290;SDS011;65100;46.884;17.410;2023-03-25T00:35:35;9.50;;;5.63;;
76290;SDS011;65100;46.884;17.410;2023-03-25T00:38:02;10.50;;;6.00;;
76290;SDS011;65100;46.884;17.410;2023-03-25T00:40:29;10.40;;;5.83;;
76290;SDS011;65100;46.884;17.410;2023-03-25T00:43:01;10.52;;;5.60;;
76290;SDS011;65100;46.884;17.410;2023-03-25T00:45:27;9.05;;;5.10;;
76290;SDS011;65100;46.884;17.410;2023-03-25T00:47:53;11.73;;;5.38;;
76290;SDS011;65100;46.884;17.410;2023-03-25T00:50:19;8.73;;;5.27;;
76290;SDS011;65100;46.884;17.410;2023-03-25T00:52:46;9.23;;;5.30;;
76290;SDS011;65100;46.884;17.410;2023-03-25T00:55:12;10.80;;;5.38;;
76290;SDS011;65100;46.884;17.410;2023-03-25T00:57:37;10.63;;;6.40;;
76290;SDS011;65100;46.884;17.410;2023-03-25T01:00:07;12.30;;;6.30;;
76290;SDS011;65100;46.884;17.410;2023-03-25T01:02:35;12.32;;;6.18;;
76290;SDS011;65100;46.884;17.410;2023-03-25T01:05:03;12.32;;;6.60;;
76290;SDS011;65100;46.884;17.410;2023-03-25T01:07:29;13.00;;;6.50;;
76290;SDS011;65100;46.884;17.410;2023-03-25T01:26:33;9.48;;;5.57;;
76290;SDS011;65100;46.884;17.410;2023-03-25T01:28:59;10.00;;;4.87;;
76290;SDS011;65100;46.884;17.410;2023-03-25T01:31:24;9.95;;;5.30;;
76290;SDS011;65100;46.884;17.410;2023-03-25T01:33:54;9.18;;;4.25;;
76290;SDS011;65100;46.884;17.410;2023-03-25T01:36:20;8.00;;;3.80;;
76290;SDS011;65100;46.884;17.410;2023-03-25T01:38:48;7.07;;;4.13;;
76290;SDS011;65100;46.884;17.410;2023-03-25T01:41:15;6.75;;;3.53;;
76290;SDS011;65100;46.884;17.410;2023-03-25T01:43:41;7.30;;;3.55;;
76290;SDS011;65100;46.884;17.410;2023-03-25T01:46:10;7.73;;;4.20;;
76290;SDS011;65100;46.884;17.410;2023-03-25T01:48:40;8.20;;;4.35;;
76290;SDS011;65100;46.884;17.410;2023-03-25T01:53:53;9.90;;;4.30;;
76290;SDS011;65100;46.884;17.410;2023-03-25T01:56:20;8.47;;;4.00;;
76290;SDS011;65100;46.884;17.410;2023-03-25T01:58:50;7.07;;;3.50;;
76290;SDS011;65100;46.884;17.410;2023-03-25T02:01:19;7.68;;;3.70;;
76290;SDS011;65100;46.884;17.410;2023-03-25T02:03:47;8.88;;;4.30;;
76290;SDS011;65100;46.884;17.410;2023-03-25T02:06:18;9.17;;;4.03;;
76290;SDS011;65100;46.884;17.410;2023-03-25T02:08:50;7.18;;;3.60;;
76290;SDS011;65100;46.884;17.410;2023-03-25T02:11:18;8.95;;;3.90;;
76290;SDS011;65100;46.884;17.410;2023-03-25T02:13:44;9.60;;;3.93;;
76290;SDS011;65100;46.884;17.410;2023-03-25T02:16:13;8.03;;;4.10;;
76290;SDS011;65100;46.884;17.410;2023-03-25T02:30:23;10.10;;;4.60;;
76290;SDS011;65100;46.884;17.410;2023-03-25T02:38:11;11.37;;;4.93;;
76290;SDS011;65100;46.884;17.410;2023-03-25T02:40:45;8.95;;;5.07;;
76290;SDS011;65100;46.884;17.410;2023-03-25T02:43:18;8.75;;;4.70;;
76290;SDS011;65100;46.884;17.410;2023-03-25T02:45:51;8.25;;;4.35;;
76290;SDS011;65100;46.884;17.410;2023-03-25T02:48:26;9.73;;;4.82;;
76290;SDS011;65100;46.884;17.410;2023-03-25T02:51:11;9.43;;;4.80;;
76290;SDS011;65100;46.884;17.410;2023-03-25T02:53:45;7.78;;;4.10;;
76290;SDS011;65100;46.884;17.410;2023-03-25T02:56:13;7.50;;;4.30;;
76290;SDS011;65100;46.884;17.410;2023-03-25T02:58:41;8.32;;;3.88;;
76290;SDS011;65100;46.884;17.410;2023-03-25T03:01:10;7.35;;;3.92;;
76290;SDS011;65100;46.884;17.410;2023-03-25T03:03:38;8.27;;;3.80;;
76290;SDS011;65100;46.884;17.410;2023-03-25T03:06:04;6.70;;;3.65;;
76290;SDS011;65100;46.884;17.410;2023-03-25T03:11:28;6.43;;;3.20;;
76290;SDS011;65100;46.884;17.410;2023-03-25T03:17:05;8.73;;;3.00;;
76290;SDS011;65100;46.884;17.410;2023-03-25T03:22:31;6.75;;;2.80;;
76290;SDS011;65100;46.884;17.410;2023-03-25T03:27:49;6.23;;;2.67;;
76290;SDS011;65100;46.884;17.410;2023-03-25T03:33:31;6.60;;;3.03;;
76290;SDS011;65100;46.884;17.410;2023-03-25T03:36:20;6.70;;;2.95;;
76290;SDS011;65100;46.884;17.410;2023-03-25T03:38:58;7.18;;;3.05;;
76290;SDS011;65100;46.884;17.410;2023-03-25T03:41:32;6.67;;;2.93;;
76290;SDS011;65100;46.884;17.410;2023-03-25T03:44:09;7.05;;;2.90;;
76290;SDS011;65100;46.884;17.410;2023-03-25T03:49:08;6.20;;;2.90;;
76290;SDS011;65100;46.884;17.410;2023-03-25T03:51:37;7.07;;;3.10;;
76290;SDS011;65100;46.884;17.410;2023-03-25T03:54:16;6.30;;;3.00;;
76290;SDS011;65100;46.884;17.410;2023-03-25T03:56:52;6.43;;;3.30;;
76290;SDS011;65100;46.884;17.410;2023-03-25T03:59:21;6.40;;;3.20;;
76290;SDS011;65100;46.884;17.410;2023-03-25T04:01:52;6.40;;;3.50;;
76290;SDS011;65100;46.884;17.410;2023-03-25T04:04:22;7.32;;;3.42;;
76290;SDS011;65100;46.884;17.410;2023-03-25T04:07:02;6.50;;;3.40;;
76290;SDS011;65100;46.884;17.410;2023-03-25T04:09:46;6.95;;;3.53;;
76290;SDS011;65100;46.884;17.410;2023-03-25T04:12:31;7.82;;;3.75;;
76290;SDS011;65100;46.884;17.410;2023-03-25T04:15:00;6.72;;;3.50;;
76290;SDS011;65100;46.884;17.410;2023-03-25T04:17:27;8.43;;;3.38;;
76290;SDS011;65100;46.884;17.410;2023-03-25T04:19:57;6.20;;;3.20;;
76290;SDS011;65100;46.884;17.410;2023-03-25T04:22:23;6.57;;;3.22;;
76290;SDS011;65100;46.884;17.410;2023-03-25T04:24:49;7.75;;;3.20;;
76290;SDS011;65100;46.884;17.410;2023-03-25T04:27:15;6.10;;;2.75;;
76290;SDS011;65100;46.884;17.410;2023-03-25T04:29:41;5.90;;;2.70;;
76290;SDS011;65100;46.884;17.410;2023-03-25T04:32:13;6.03;;;2.83;;
76290;SDS011;65100;46.884;17.410;2023-03-25T04:34:40;5.20;;;2.50;;
76290;SDS011;65100;46.884;17.410;2023-03-25T04:37:06;6.40;;;2.92;;
76290;SDS011;65100;46.884;17.410;2023-03-25T04:39:31;6.70;;;2.80;;
76290;SDS011;65100;46.884;17.410;2023-03-25T04:41:57;6.30;;;2.80;;
76290;SDS011;65100;46.884;17.410;2023-03-25T04:44:30;6.32;;;2.90;;
76290;SDS011;65100;46.884;17.410;2023-03-25T04:47:03;5.50;;;2.80;;
76290;SDS011;65100;46.884;17.410;2023-03-25T04:49:30;5.18;;;2.47;;
76290;SDS011;65100;46.884;17.410;2023-03-25T04:51:56;6.13;;;2.90;;
76290;SDS011;65100;46.884;17.410;2023-03-25T04:54:23;8.25;;;2.90;;
76290;SDS011;65100;46.884;17.410;2023-03-25T04:56:49;6.45;;;2.83;;
76290;SDS011;65100;46.884;17.410;2023-03-25T04:59:16;6.22;;;2.80;;
76290;SDS011;65100;46.884;17.410;2023-03-25T05:01:43;5.65;;;2.92;;
76290;SDS011;65100;46.884;17.410;2023-03-25T05:04:10;5.43;;;2.70;;
76290;SDS011;65100;46.884;17.410;2023-03-25T05:06:39;5.80;;;2.88;;
76290;SDS011;65100;46.884;17.410;2023-03-25T05:09:16;5.82;;;2.88;;
76290;SDS011;65100;46.884;17.410;2023-03-25T05:11:46;6.65;;;3.00;;
76290;SDS011;65100;46.884;17.410;2023-03-25T05:14:13;6.30;;;3.00;;
76290;SDS011;65100;46.884;17.410;2023-03-25T05:16:41;5.53;;;2.60;;
76290;SDS011;65100;46.884;17.410;2023-03-25T05:19:07;6.00;;;2.85;;
76290;SDS011;65100;46.884;17.410;2023-03-25T05:21:33;6.10;;;2.90;;
76290;SDS011;65100;46.884;17.410;2023-03-25T05:24:00;5.63;;;2.70;;
76290;SDS011;65100;46.884;17.410;2023-03-25T05:26:26;5.53;;;2.60;;
76290;SDS011;65100;46.884;17.410;2023-03-25T05:29:05;6.40;;;2.70;;
76290;SDS011;65100;46.884;17.410;2023-03-25T05:31:37;6.22;;;2.70;;
76290;SDS011;65100;46.884;17.410;2023-03-25T05:34:03;5.70;;;2.85;;
76290;SDS011;65100;46.884;17.410;2023-03-25T05:36:30;6.40;;;3.05;;
76290;SDS011;65100;46.884;17.410;2023-03-25T05:38:56;6.20;;;2.77;;
76290;SDS011;65100;46.884;17.410;2023-03-25T05:41:22;5.72;;;2.80;;
76290;SDS011;65100;46.884;17.410;2023-03-25T05:43:56;5.93;;;2.75;;
76290;SDS011;65100;46.884;17.410;2023-03-25T05:46:26;6.72;;;2.65;;
76290;SDS011;65100;46.884;17.410;2023-03-25T05:48:53;6.35;;;2.95;;
76290;SDS011;65100;46.884;17.410;2023-03-25T05:51:19;5.57;;;2.60;;
76290;SDS011;65100;46.884;17.410;2023-03-25T05:53:46;6.05;;;2.67;;
76290;SDS011;65100;46.884;17.410;2023-03-25T05:56:14;9.30;;;4.05;;
76290;SDS011;65100;46.884;17.410;2023-03-25T05:58:42;7.47;;;4.00;;
76290;SDS011;65100;46.884;17.410;2023-03-25T06:01:09;6.90;;;3.50;;
76290;SDS011;65100;46.884;17.410;2023-03-25T06:03:35;7.28;;;3.40;;
76290;SDS011;65100;46.884;17.410;2023-03-25T06:06:00;6.43;;;3.50;;
76290;SDS011;65100;46.884;17.410;2023-03-25T06:08:29;6.97;;;3.22;;
76290;SDS011;65100;46.884;17.410;2023-03-25T06:10:55;5.88;;;2.80;;
76290;SDS011;65100;46.884;17.410;2023-03-25T06:13:25;7.22;;;2.90;;
76290;SDS011;65100;46.884;17.410;2023-03-25T06:15:51;6.03;;;3.08;;
76290;SDS011;65100;46.884;17.410;2023-03-25T06:18:24;5.23;;;2.00;;
76290;SDS011;65100;46.884;17.410;2023-03-25T06:20:50;5.07;;;2.30;;
76290;SDS011;65100;46.884;17.410;2023-03-25T06:23:19;5.03;;;2.30;;
76290;SDS011;65100;46.884;17.410;2023-03-25T06:25:46;5.60;;;2.72;;
76290;SDS011;65100;46.884;17.410;2023-03-25T06:28:13;6.35;;;2.65;;
76290;SDS011;65100;46.884;17.410;2023-03-25T06:30:42;5.63;;;2.57;;
76290;SDS011;65100;46.884;17.410;2023-03-25T06:33:08;6.20;;;2.85;;
76290;SDS011;65100;46.884;17.410;2023-03-25T06:35:34;5.07;;;2.42;;
76290;SDS011;65100;46.884;17.410;2023-03-25T06:38:00;5.23;;;2.50;;
76290;SDS011;65100;46.884;17.410;2023-03-25T06:40:25;5.53;;;2.77;;
76290;SDS011;65100;46.884;17.410;2023-03-25T06:42:51;5.60;;;2.55;;
76290;SDS011;65100;46.884;17.410;2023-03-25T06:45:16;5.57;;;2.30;;
76290;SDS011;65100;46.884;17.410;2023-03-25T06:47:42;6.38;;;2.60;;
76290;SDS011;65100;46.884;17.410;2023-03-25T06:50:08;6.90;;;2.27;;
76290;SDS011;65100;46.884;17.410;2023-03-25T06:52:33;5.60;;;2.15;;
76290;SDS011;65100;46.884;17.410;2023-03-25T06:55:00;4.25;;;2.00;;
76290;SDS011;65100;46.884;17.410;2023-03-25T06:57:25;5.20;;;2.00;;
76290;SDS011;65100;46.884;17.410;2023-03-25T06:59:51;4.57;;;1.93;;
76290;SDS011;65100;46.884;17.410;2023-03-25T07:02:16;4.75;;;2.05;;
76290;SDS011;65100;46.884;17.410;2023-03-25T07:04:42;5.00;;;2.20;;
76290;SDS011;65100;46.884;17.410;2023-03-25T07:07:07;5.10;;;2.27;;
76290;SDS011;65100;46.884;17.410;2023-03-25T07:09:33;5.00;;;2.05;;
76290;SDS011;65100;46.884;17.410;2023-03-25T07:11:59;5.63;;;2.30;;
76290;SDS011;65100;46.884;17.410;2023-03-25T07:14:25;6.93;;;2.10;;
76290;SDS011;65100;46.884;17.410;2023-03-25T07:16:50;4.97;;;2.10;;
76290;SDS011;65100;46.884;17.410;2023-03-25T07:19:16;5.15;;;2.10;;
76290;SDS011;65100;46.884;17.410;2023-03-25T07:21:41;4.50;;;2.10;;
76290;SDS011;65100;46.884;17.410;2023-03-25T07:24:07;4.97;;;2.00;;
76290;SDS011;65100;46.884;17.410;2023-03-25T07:26:32;4.33;;;1.90;;
76290;SDS011;65100;46.884;17.410;2023-03-25T07:28:58;5.00;;;2.07;;
76290;SDS011;65100;46.884;17.410;2023-03-25T07:31:23;5.47;;;2.20;;
76290;SDS011;65100;46.884;17.410;2023-03-25T07:33:49;5.35;;;1.90;;
76290;SDS011;65100;46.884;17.410;2023-03-25T07:36:15;4.93;;;1.80;;
76290;SDS011;65100;46.884;17.410;2023-03-25T07:38:41;5.05;;;2.15;;
76290;SDS011;65100;46.884;17.410;2023-03-25T07:41:08;5.63;;;2.47;;
76290;SDS011;65100;46.884;17.410;2023-03-25T07:43:35;7.15;;;2.63;;
76290;SDS011;65100;46.884;17.410;2023-03-25T07:46:01;6.80;;;3.10;;
76290;SDS011;65100;46.884;17.410;2023-03-25T07:48:26;5.70;;;2.23;;
76290;SDS011;65100;46.884;17.410;2023-03-25T07:50:52;5.60;;;2.10;;
76290;SDS011;65100;46.884;17.410;2023-03-25T07:53:18;5.00;;;2.10;;
76290;SDS011;65100;46.884;17.410;2023-03-25T07:55:44;5.30;;;2.40;;
76290;SDS011;65100;46.884;17.410;2023-03-25T07:58:10;5.80;;;2.30;;
76290;SDS011;65100;46.884;17.410;2023-03-25T08:00:36;6.17;;;2.30;;
76290;SDS011;65100;46.884;17.410;2023-03-25T08:03:02;5.10;;;2.30;;
76290;SDS011;65100;46.884;17.410;2023-03-25T08:05:28;5.20;;;2.22;;
76290;SDS011;65100;46.884;17.410;2023-03-25T08:07:54;6.20;;;2.27;;
76290;SDS011;65100;46.884;17.410;2023-03-25T08:10:19;5.65;;;2.30;;
76290;SDS011;65100;46.884;17.410;2023-03-25T08:12:45;4.93;;;2.20;;
76290;SDS011;65100;46.884;17.410;2023-03-25T08:15:11;4.82;;;2.10;;
76290;SDS011;65100;46.884;17.410;2023-03-25T08:17:37;5.55;;;2.00;;
76290;SDS011;65100;46.884;17.410;2023-03-25T08:20:04;6.50;;;2.45;;
76290;SDS011;65100;46.884;17.410;2023-03-25T08:22:30;5.50;;;2.47;;
76290;SDS011;65100;46.884;17.410;2023-03-25T08:24:57;4.70;;;2.15;;
76290;SDS011;65100;46.884;17.410;2023-03-25T08:27:22;5.63;;;2.58;;
76290;SDS011;65100;46.884;17.410;2023-03-25T08:29:48;5.55;;;2.35;;
76290;SDS011;65100;46.884;17.410;2023-03-25T08:32:25;4.90;;;2.10;;
76290;SDS011;65100;46.884;17.410;2023-03-25T08:34:52;4.90;;;2.30;;
76290;SDS011;65100;46.884;17.410;2023-03-25T08:37:18;4.75;;;2.00;;
76290;SDS011;65100;46.884;17.410;2023-03-25T08:39:45;5.03;;;2.13;;
76290;SDS011;65100;46.884;17.410;2023-03-25T08:42:14;4.90;;;2.10;;
76290;SDS011;65100;46.884;17.410;2023-03-25T08:44:40;6.67;;;2.70;;
76290;SDS011;65100;46.884;17.410;2023-03-25T08:47:06;5.35;;;2.40;;
76290;SDS011;65100;46.884;17.410;2023-03-25T08:49:31;6.20;;;2.23;;
76290;SDS011;65100;46.884;17.410;2023-03-25T08:51:57;5.63;;;2.50;;
76290;SDS011;65100;46.884;17.410;2023-03-25T08:54:24;6.50;;;2.58;;
76290;SDS011;65100;46.884;17.410;2023-03-25T08:56:50;5.82;;;2.35;;
76290;SDS011;65100;46.884;17.410;2023-03-25T08:59:15;5.43;;;2.33;;
76290;SDS011;65100;46.884;17.410;2023-03-25T09:01:41;5.67;;;2.40;;
76290;SDS011;65100;46.884;17.410;2023-03-25T09:04:08;5.82;;;2.40;;
76290;SDS011;65100;46.884;17.410;2023-03-25T09:06:35;6.13;;;2.72;;
76290;SDS011;65100;46.884;17.410;2023-03-25T09:09:02;5.22;;;2.28;;
76290;SDS011;65100;46.884;17.410;2023-03-25T09:11:29;6.27;;;2.47;;
76290;SDS011;65100;46.884;17.410;2023-03-25T09:14:05;5.82;;;2.63;;
76290;SDS011;65100;46.884;17.410;2023-03-25T09:16:31;5.60;;;2.70;;
76290;SDS011;65100;46.884;17.410;2023-03-25T09:18:57;5.27;;;2.40;;
76290;SDS011;65100;46.884;17.410;2023-03-25T09:21:22;7.40;;;2.83;;
76290;SDS011;65100;46.884;17.410;2023-03-25T09:23:48;7.67;;;3.00;;
76290;SDS011;65100;46.884;17.410;2023-03-25T09:26:13;6.03;;;2.72;;
76290;SDS011;65100;46.884;17.410;2023-03-25T09:28:39;5.47;;;2.47;;
76290;SDS011;65100;46.884;17.410;2023-03-25T09:31:05;5.63;;;2.47;;
76290;SDS011;65100;46.884;17.410;2023-03-25T09:33:32;6.70;;;2.30;;
76290;SDS011;65100;46.884;17.410;2023-03-25T09:35:57;5.70;;;2.53;;
76290;SDS011;65100;46.884;17.410;2023-03-25T09:38:23;6.70;;;2.77;;
76290;SDS011;65100;46.884;17.410;2023-03-25T09:40:48;5.47;;;2.40;;
76290;SDS011;65100;46.884;17.410;2023-03-25T09:46:05;6.47;;;2.73;;
76290;SDS011;65100;46.884;17.410;2023-03-25T09:48:44;5.72;;;2.70;;
76290;SDS011;65100;46.884;17.410;2023-03-25T09:56:27;5.95;;;2.60;;
76290;SDS011;65100;46.884;17.410;2023-03-25T09:58:57;5.67;;;2.60;;
76290;SDS011;65100;46.884;17.410;2023-03-25T10:04:30;6.68;;;2.95;;
76290;SDS011;65100;46.884;17.410;2023-03-25T10:10:09;6.20;;;2.75;;
76290;SDS011;65100;46.884;17.410;2023-03-25T10:18:23;6.40;;;2.55;;
76290;SDS011;65100;46.884;17.410;2023-03-25T10:21:16;5.93;;;2.65;;
76290;SDS011;65100;46.884;17.410;2023-03-25T10:26:39;6.47;;;3.03;;
76290;SDS011;65100;46.884;17.410;2023-03-25T10:29:11;5.80;;;2.70;;
76290;SDS011;65100;46.884;17.410;2023-03-25T10:31:39;6.90;;;3.20;;
76290;SDS011;65100;46.884;17.410;2023-03-25T10:34:14;9.32;;;3.80;;
76290;SDS011;65100;46.884;17.410;2023-03-25T10:36:52;6.22;;;2.90;;
76290;SDS011;65100;46.884;17.410;2023-03-25T10:39:22;5.97;;;2.60;;
76290;SDS011;65100;46.884;17.410;2023-03-25T10:42:12;6.97;;;2.60;;
76290;SDS011;65100;46.884;17.410;2023-03-25T10:44:50;5.88;;;2.60;;
76290;SDS011;65100;46.884;17.410;2023-03-25T10:47:18;5.80;;;2.33;;
76290;SDS011;65100;46.884;17.410;2023-03-25T10:49:47;5.53;;;2.40;;
76290;SDS011;65100;46.884;17.410;2023-03-25T10:52:15;8.37;;;2.80;;
76290;SDS011;65100;46.884;17.410;2023-03-25T10:54:44;10.27;;;3.72;;
76290;SDS011;65100;46.884;17.410;2023-03-25T10:57:23;9.35;;;2.70;;
76290;SDS011;65100;46.884;17.410;2023-03-25T10:59:57;5.63;;;2.30;;
76290;SDS011;65100;46.884;17.410;2023-03-25T11:02:24;4.63;;;2.03;;
76290;SDS011;65100;46.884;17.410;2023-03-25T11:04:54;5.87;;;2.40;;
76290;SDS011;65100;46.884;17.410;2023-03-25T11:07:31;5.18;;;2.30;;
76290;SDS011;65100;46.884;17.410;2023-03-25T11:10:07;5.32;;;2.60;;
76290;SDS011;65100;46.884;17.410;2023-03-25T11:12:38;5.07;;;2.22;;
76290;SDS011;65100;46.884;17.410;2023-03-25T11:15:16;5.45;;;2.30;;
76290;SDS011;65100;46.884;17.410;2023-03-25T11:17:54;5.30;;;2.20;;
76290;SDS011;65100;46.884;17.410;2023-03-25T11:20:30;5.68;;;2.10;;
76290;SDS011;65100;46.884;17.410;2023-03-25T11:23:05;5.20;;;2.10;;
76290;SDS011;65100;46.884;17.410;2023-03-25T11:25:38;6.65;;;2.40;;
76290;SDS011;65100;46.884;17.410;2023-03-25T11:28:19;4.68;;;1.92;;
76290;SDS011;65100;46.884;17.410;2023-03-25T11:31:13;5.13;;;2.10;;
76290;SDS011;65100;46.884;17.410;2023-03-25T11:33:44;5.47;;;2.20;;
76290;SDS011;65100;46.884;17.410;2023-03-25T11:36:12;5.90;;;2.40;;
76290;SDS011;65100;46.884;17.410;2023-03-25T11:38:51;5.65;;;2.10;;
76290;SDS011;65100;46.884;17.410;2023-03-25T11:41:21;5.97;;;2.08;;
76290;SDS011;65100;46.884;17.410;2023-03-25T11:43:47;4.60;;;1.70;;
76290;SDS011;65100;46.884;17.410;2023-03-25T11:46:14;4.72;;;1.80;;
76290;SDS011;65100;46.884;17.410;2023-03-25T11:48:42;4.82;;;1.77;;
76290;SDS011;65100;46.884;17.410;2023-03-25T11:51:14;5.35;;;2.10;;
76290;SDS011;65100;46.884;17.410;2023-03-25T11:53:45;5.47;;;2.00;;
76290;SDS011;65100;46.884;17.410;2023-03-25T11:56:27;4.90;;;1.90;;
76290;SDS011;65100;46.884;17.410;2023-03-25T11:59:02;6.00;;;2.10;;
76290;SDS011;65100;46.884;17.410;2023-03-25T12:02:02;6.07;;;2.10;;
76290;SDS011;65100;46.884;17.410;2023-03-25T12:07:50;4.57;;;1.90;;
76290;SDS011;65100;46.884;17.410;2023-03-25T12:13:04;5.28;;;1.75;;
76290;SDS011;65100;46.884;17.410;2023-03-25T12:21:28;5.97;;;2.50;;
76290;SDS011;65100;46.884;17.410;2023-03-25T12:42:16;3.97;;;1.40;;
76290;SDS011;65100;46.884;17.410;2023-03-25T12:48:01;5.03;;;1.80;;
76290;SDS011;65100;46.884;17.410;2023-03-25T12:58:31;4.15;;;1.63;;
76290;SDS011;65100;46.884;17.410;2023-03-25T13:12:42;4.13;;;1.60;;
76290;SDS011;65100;46.884;17.410;2023-03-25T13:17:56;5.28;;;1.90;;
76290;SDS011;65100;46.884;17.410;2023-03-25T13:20:23;4.50;;;1.90;;
76290;SDS011;65100;46.884;17.410;2023-03-25T13:22:52;4.15;;;1.75;;
76290;SDS011;65100;46.884;17.410;2023-03-25T13:25:25;5.50;;;2.50;;
76290;SDS011;65100;46.884;17.410;2023-03-25T13:27:56;5.45;;;2.22;;
76290;SDS011;65100;46.884;17.410;2023-03-25T13:30:38;4.90;;;2.25;;
76290;SDS011;65100;46.884;17.410;2023-03-25T13:33:14;4.87;;;1.80;;
76290;SDS011;65100;46.884;17.410;2023-03-25T13:35:44;4.43;;;1.90;;
76290;SDS011;65100;46.884;17.410;2023-03-25T13:45:50;4.80;;;1.90;;
76290;SDS011;65100;46.884;17.410;2023-03-25T13:48:40;4.90;;;1.70;;
76290;SDS011;65100;46.884;17.410;2023-03-25T13:51:11;4.37;;;1.70;;
76290;SDS011;65100;46.884;17.410;2023-03-25T13:56:40;3.88;;;1.60;;
76290;SDS011;65100;46.884;17.410;2023-03-25T14:12:53;4.90;;;2.00;;
76290;SDS011;65100;46.884;17.410;2023-03-25T14:15:23;4.10;;;1.92;;
76290;SDS011;65100;46.884;17.410;2023-03-25T14:18:01;3.90;;;1.60;;
76290;SDS011;65100;46.884;17.410;2023-03-25T14:20:34;4.75;;;1.80;;
76290;SDS011;65100;46.884;17.410;2023-03-25T14:23:04;4.25;;;1.80;;
76290;SDS011;65100;46.884;17.410;2023-03-25T14:25:38;4.93;;;1.70;;
76290;SDS011;65100;46.884;17.410;2023-03-25T14:28:07;4.90;;;2.22;;
76290;SDS011;65100;46.884;17.410;2023-03-25T14:30:39;5.07;;;1.90;;
76290;SDS011;65100;46.884;17.410;2023-03-25T14:33:07;5.43;;;1.80;;
76290;SDS011;65100;46.884;17.410;2023-03-25T14:43:17;5.13;;;1.73;;
76290;SDS011;65100;46.884;17.410;2023-03-25T14:56:21;4.20;;;1.60;;
76290;SDS011;65100;46.884;17.410;2023-03-25T14:58:55;4.80;;;1.70;;
76290;SDS011;65100;46.884;17.410;2023-03-25T15:01:27;4.65;;;1.60;;
76290;SDS011;65100;46.884;17.410;2023-03-25T15:04:10;3.40;;;1.52;;
76290;SDS011;65100;46.884;17.410;2023-03-25T15:06:39;3.63;;;1.52;;
76290;SDS011;65100;46.884;17.410;2023-03-25T15:09:07;3.77;;;1.63;;
76290;SDS011;65100;46.884;17.410;2023-03-25T15:11:36;4.05;;;1.70;;
76290;SDS011;65100;46.884;17.410;2023-03-25T15:14:05;4.22;;;1.65;;
76290;SDS011;65100;46.884;17.410;2023-03-25T15:19:07;4.17;;;1.83;;
76290;SDS011;65100;46.884;17.410;2023-03-25T15:26:58;5.23;;;1.83;;
76290;SDS011;65100;46.884;17.410;2023-03-25T15:29:42;4.22;;;1.40;;
76290;SDS011;65100;46.884;17.410;2023-03-25T15:38:35;3.88;;;1.80;;
76290;SDS011;65100;46.884;17.410;2023-03-25T15:52:29;5.28;;;2.00;;
76290;SDS011;65100;46.884;17.410;2023-03-25T15:55:07;3.70;;;1.50;;
76290;SDS011;65100;46.884;17.410;2023-03-25T15:57:42;4.68;;;1.88;;
76290;SDS011;65100;46.884;17.410;2023-03-25T16:05:27;5.93;;;1.80;;
76290;SDS011;65100;46.884;17.410;2023-03-25T16:08:10;4.03;;;1.70;;
76290;SDS011;65100;46.884;17.410;2023-03-25T16:10:41;4.38;;;1.80;;
76290;SDS011;65100;46.884;17.410;2023-03-25T16:13:10;4.80;;;1.90;;
76290;SDS011;65100;46.884;17.410;2023-03-25T16:15:37;4.65;;;1.80;;
76290;SDS011;65100;46.884;17.410;2023-03-25T16:18:06;5.22;;;1.98;;
76290;SDS011;65100;46.884;17.410;2023-03-25T16:20:35;4.37;;;1.80;;
76290;SDS011;65100;46.884;17.410;2023-03-25T16:23:02;5.53;;;1.98;;
76290;SDS011;65100;46.884;17.410;2023-03-25T16:28:12;5.38;;;1.98;;
76290;SDS011;65100;46.884;17.410;2023-03-25T16:30:40;7.15;;;2.00;;
76290;SDS011;65100;46.884;17.410;2023-03-25T16:35:35;5.07;;;1.90;;
76290;SDS011;65100;46.884;17.410;2023-03-25T16:38:02;5.35;;;2.15;;
76290;SDS011;65100;46.884;17.410;2023-03-25T16:40:35;5.22;;;1.90;;
76290;SDS011;65100;46.884;17.410;2023-03-25T16:43:11;4.63;;;1.83;;
76290;SDS011;65100;46.884;17.410;2023-03-25T16:45:48;4.93;;;1.90;;
76290;SDS011;65100;46.884;17.410;2023-03-25T16:48:16;5.20;;;2.00;;
76290;SDS011;65100;46.884;17.410;2023-03-25T16:50:46;5.15;;;1.80;;
76290;SDS011;65100;46.884;17.410;2023-03-25T16:53:13;4.95;;;1.98;;
76290;SDS011;65100;46.884;17.410;2023-03-25T16:55:42;5.03;;;2.20;;
76290;SDS011;65100;46.884;17.410;2023-03-25T16:58:19;5.47;;;2.00;;
76290;SDS011;65100;46.884;17.410;2023-03-25T17:00:50;4.78;;;2.10;;
76290;SDS011;65100;46.884;17.410;2023-03-25T17:03:18;4.70;;;2.00;;
76290;SDS011;65100;46.884;17.410;2023-03-25T17:06:24;5.90;;;2.00;;
76290;SDS011;65100;46.884;17.410;2023-03-25T17:08:55;5.03;;;2.13;;
76290;SDS011;65100;46.884;17.410;2023-03-25T17:11:23;5.03;;;1.97;;
76290;SDS011;65100;46.884;17.410;2023-03-25T17:13:53;6.32;;;2.30;;
76290;SDS011;65100;46.884;17.410;2023-03-25T17:16:26;5.82;;;2.80;;
76290;SDS011;65100;46.884;17.410;2023-03-25T17:18:54;5.60;;;2.30;;
76290;SDS011;65100;46.884;17.410;2023-03-25T17:21:25;5.45;;;2.42;;
76290;SDS011;65100;46.884;17.410;2023-03-25T17:23:54;6.00;;;2.43;;
76290;SDS011;65100;46.884;17.410;2023-03-25T17:26:22;5.93;;;2.40;;
76290;SDS011;65100;46.884;17.410;2023-03-25T17:34:00;6.60;;;2.88;;
76290;SDS011;65100;46.884;17.410;2023-03-25T17:36:31;6.00;;;2.53;;
76290;SDS011;65100;46.884;17.410;2023-03-25T17:38:58;6.88;;;2.58;;
76290;SDS011;65100;46.884;17.410;2023-03-25T17:41:29;7.60;;;3.50;;
76290;SDS011;65100;46.884;17.410;2023-03-25T17:44:00;6.57;;;2.60;;
76290;SDS011;65100;46.884;17.410;2023-03-25T17:46:27;7.00;;;3.13;;
76290;SDS011;65100;46.884;17.410;2023-03-25T17:48:54;6.53;;;2.53;;
76290;SDS011;65100;46.884;17.410;2023-03-25T17:51:22;6.50;;;3.00;;
76290;SDS011;65100;46.884;17.410;2023-03-25T17:53:49;6.28;;;2.80;;
76290;SDS011;65100;46.884;17.410;2023-03-25T17:56:17;6.00;;;2.90;;
76290;SDS011;65100;46.884;17.410;2023-03-25T17:58:46;5.77;;;2.37;;
76290;SDS011;65100;46.884;17.410;2023-03-25T18:01:12;6.97;;;2.83;;
76290;SDS011;65100;46.884;17.410;2023-03-25T18:03:38;6.13;;;2.97;;
76290;SDS011;65100;46.884;17.410;2023-03-25T18:06:04;6.00;;;2.50;;
76290;SDS011;65100;46.884;17.410;2023-03-25T18:08:30;5.93;;;2.90;;
76290;SDS011;65100;46.884;17.410;2023-03-25T18:10:56;7.00;;;3.35;;
76290;SDS011;65100;46.884;17.410;2023-03-25T18:13:23;6.57;;;2.90;;
76290;SDS011;65100;46.884;17.410;2023-03-25T18:15:52;6.53;;;3.00;;
76290;SDS011;65100;46.884;17.410;2023-03-25T18:18:20;6.45;;;3.08;;
76290;SDS011;65100;46.884;17.410;2023-03-25T18:20:48;6.53;;;3.20;;
76290;SDS011;65100;46.884;17.410;2023-03-25T18:23:15;6.82;;;3.10;;